createdAt,value
2022-09-28T00:01:43.705Z,7.73
2022-09-28T00:04:13.200Z,7.77
2022-09-28T00:06:42.230Z,7.73
2022-09-28T00:09:11.513Z,7.71
2022-09-28T00:11:40.988Z,7.76
2022-09-28T00:14:12.120Z,7.78
2022-09-28T00:16:44.431Z,7.71
2022-09-28T00:19:14.247Z,7.72
2022-09-28T00:21:44.050Z,7.79
2022-09-28T00:24:16.034Z,7.77
2022-09-28T00:26:48.544Z,7.67
2022-09-28T00:29:23.469Z,7.64
2022-09-28T00:31:57.270Z,7.61
2022-09-28T00:34:27.298Z,7.71
2022-09-28T00:36:56.386Z,7.65
2022-09-28T00:39:26.955Z,7.61
2022-09-28T00:41:56.569Z,7.64
2022-09-28T00:45:00.786Z,7.65
2022-09-28T00:47:43.317Z,7.64
2022-09-28T00:50:19.335Z,7.60
2022-09-28T00:52:54.260Z,7.64
2022-09-28T00:55:31.897Z,7.57
2022-09-28T00:58:04.694Z,7.54
2022-09-28T01:00:36.587Z,7.42
2022-09-28T01:03:06.307Z,7.41
2022-09-28T01:05:37.844Z,7.39
2022-09-28T01:08:08.381Z,7.32
2022-09-28T01:10:37.593Z,7.32
2022-09-28T01:13:06.596Z,7.30
2022-09-28T01:15:44.322Z,7.25
2022-09-28T01:18:23.791Z,7.25
2022-09-28T01:21:02.294Z,7.22
2022-09-28T01:24:10.878Z,7.18
2022-09-28T01:26:57.480Z,7.14
2022-09-28T01:29:39.853Z,7.14
2022-09-28T01:32:16.798Z,7.04
2022-09-28T01:34:53.671Z,6.99
2022-09-28T01:37:27.688Z,6.99
2022-09-28T01:39:59.503Z,6.96
2022-09-28T01:42:34.094Z,6.92
2022-09-28T01:45:12.354Z,6.90
2022-09-28T01:47:42.204Z,6.91
2022-09-28T01:50:15.496Z,6.86
2022-09-28T01:52:50.537Z,6.81
2022-09-28T01:55:29.362Z,6.79
2022-09-28T01:58:04.553Z,6.80
2022-09-28T02:00:36.616Z,6.79
2022-09-28T02:03:12.430Z,6.75
2022-09-28T02:05:50.483Z,6.70
2022-09-28T02:08:26.927Z,6.64
2022-09-28T02:11:01.388Z,6.63
2022-09-28T02:13:36.400Z,6.67
2022-09-28T02:16:11.832Z,6.68
2022-09-28T02:18:42.745Z,6.65
2022-09-28T02:21:21.760Z,6.66
2022-09-28T02:23:57.432Z,6.64
2022-09-28T02:26:38.671Z,6.70
2022-09-28T02:29:09.274Z,6.59
2022-09-28T02:31:38.438Z,6.55
2022-09-28T02:34:07.619Z,6.63
2022-09-28T02:36:37.061Z,6.61
2022-09-28T02:39:06.645Z,6.62
2022-09-28T02:41:49.557Z,6.59
2022-09-28T02:44:43.060Z,6.54
2022-09-28T02:47:28.245Z,6.51
2022-09-28T02:50:09.031Z,6.47
2022-09-28T02:53:04.598Z,6.46
2022-09-28T02:55:44.611Z,6.48
2022-09-28T02:58:26.130Z,6.40
2022-09-28T03:01:04.300Z,6.37
2022-09-28T03:03:43.194Z,6.40
2022-09-28T03:06:21.315Z,6.37
2022-09-28T03:08:59.027Z,6.31
2022-09-28T03:11:37.572Z,6.36
2022-09-28T03:14:07.653Z,6.32
2022-09-28T03:16:47.238Z,6.24
2022-09-28T03:19:20.311Z,6.14
2022-09-28T03:21:49.418Z,6.22
2022-09-28T03:24:18.539Z,6.27
2022-09-28T03:26:47.529Z,6.23
2022-09-28T03:29:17.294Z,6.16
2022-09-28T03:31:50.469Z,6.23
2022-09-28T03:34:19.663Z,6.14
2022-09-28T03:36:48.634Z,6.10
2022-09-28T03:39:17.683Z,6.15
2022-09-28T03:41:46.681Z,6.16
2022-09-28T03:44:16.169Z,6.19
2022-09-28T03:46:45.235Z,6.09
2022-09-28T03:49:15.792Z,6.04
2022-09-28T03:51:44.826Z,6.01
2022-09-28T03:54:14.151Z,5.98
2022-09-28T03:56:43.411Z,6.07
2022-09-28T03:59:12.764Z,6.04
2022-09-28T04:01:41.840Z,5.98
2022-09-28T04:04:13.114Z,5.97
2022-09-28T04:06:43.507Z,5.91
2022-09-28T04:09:12.637Z,5.87
2022-09-28T04:12:02.314Z,5.87
2022-09-28T04:14:31.422Z,5.87
2022-09-28T04:17:00.429Z,5.92
2022-09-28T04:19:32.808Z,6.02
2022-09-28T04:22:24.220Z,6.10
2022-09-28T04:24:53.352Z,6.15
2022-09-28T04:27:40.126Z,6.24
2022-09-28T04:30:10.726Z,6.25
2022-09-28T04:32:40.889Z,6.31
2022-09-28T04:35:12.650Z,6.19
2022-09-28T04:37:43.043Z,6.16
2022-09-28T04:40:12.549Z,6.22
2022-09-28T04:42:41.677Z,6.34
2022-09-28T04:45:11.755Z,6.30
2022-09-28T04:47:45.081Z,6.22
2022-09-28T04:50:35.045Z,6.12
2022-09-28T04:53:23.198Z,6.12
2022-09-28T04:56:00.282Z,6.11
2022-09-28T04:58:30.383Z,6.09
2022-09-28T05:01:01.270Z,6.26
2022-09-28T05:03:56.498Z,6.21
2022-09-28T05:06:48.384Z,6.20
2022-09-28T05:09:19.060Z,6.23
2022-09-28T05:11:52.968Z,6.38
2022-09-28T05:14:24.428Z,6.36
2022-09-28T05:16:54.412Z,6.33
2022-09-28T05:19:38.322Z,6.36
2022-09-28T05:22:11.433Z,6.31
2022-09-28T05:24:46.381Z,6.21
2022-09-28T05:27:15.988Z,6.25
2022-09-28T05:29:48.296Z,6.23
2022-09-28T05:32:42.076Z,6.31
2022-09-28T05:35:21.968Z,6.33
2022-09-28T05:37:51.368Z,6.47
2022-09-28T05:40:21.861Z,6.35
2022-09-28T05:42:51.140Z,6.29
2022-09-28T05:45:20.141Z,6.35
2022-09-28T05:47:49.165Z,6.44
2022-09-28T05:50:21.313Z,6.49
2022-09-28T05:53:00.473Z,6.58
2022-09-28T05:55:31.245Z,6.55
2022-09-28T05:58:01.106Z,6.47
2022-09-28T06:00:32.730Z,6.43
2022-09-28T06:03:08.034Z,6.44
2022-09-28T06:05:39.636Z,6.61
2022-09-28T06:08:11.550Z,6.57
2022-09-28T06:10:46.427Z,6.62
2022-09-28T06:13:15.925Z,6.60
2022-09-28T06:15:46.363Z,6.57
2022-09-28T06:18:16.264Z,6.60
2022-09-28T06:21:05.886Z,6.71
2022-09-28T06:23:40.398Z,6.57
2022-09-28T06:26:11.454Z,6.66
2022-09-28T06:28:41.289Z,6.72
2022-09-28T06:31:11.775Z,6.59
2022-09-28T06:33:50.087Z,6.75
2022-09-28T06:36:20.826Z,6.75
2022-09-28T06:38:51.541Z,6.50
2022-09-28T06:41:24.476Z,6.53
2022-09-28T06:43:53.567Z,6.55
2022-09-28T06:46:41.553Z,6.73
2022-09-28T06:49:36.642Z,6.69
2022-09-28T06:52:34.800Z,6.71
2022-09-28T06:55:08.444Z,6.63
2022-09-28T06:57:44.580Z,6.71
2022-09-28T07:00:15.050Z,6.79
2022-09-28T07:02:46.978Z,6.79
2022-09-28T07:05:36.917Z,6.69
2022-09-28T07:08:24.585Z,6.82
2022-09-28T07:11:26.891Z,6.81
2022-09-28T07:14:28.732Z,6.82
2022-09-28T07:17:13.338Z,6.70
2022-09-28T07:19:44.542Z,6.79
2022-09-28T07:22:18.601Z,6.91
2022-09-28T07:24:49.254Z,6.89
2022-09-28T07:27:44.164Z,6.66
2022-09-28T07:30:21.347Z,6.62
2022-09-28T07:33:12.484Z,6.88
2022-09-28T07:35:53.199Z,6.93
2022-09-28T07:38:25.988Z,7.14
2022-09-28T07:41:17.984Z,7.01
2022-09-28T07:43:52.221Z,7.21
2022-09-28T07:46:23.282Z,7.17
2022-09-28T07:49:08.387Z,7.22
2022-09-28T07:52:02.088Z,7.13
2022-09-28T07:54:31.203Z,7.22
2022-09-28T07:57:18.787Z,7.08
2022-09-28T07:59:53.653Z,7.07
2022-09-28T08:02:48.280Z,7.04
2022-09-28T08:05:25.747Z,7.06
2022-09-28T08:07:57.740Z,7.02
2022-09-28T08:10:27.567Z,7.20
2022-09-28T08:13:18.741Z,7.03
2022-09-28T08:16:08.253Z,7.18
2022-09-28T08:18:43.723Z,7.41
2022-09-28T08:21:30.368Z,7.36
2022-09-28T08:23:59.426Z,7.47
2022-09-28T08:26:28.981Z,7.54
2022-09-28T08:28:58.167Z,7.41
2022-09-28T08:31:49.526Z,7.54
2022-09-28T08:34:39.284Z,7.79
2022-09-28T08:37:11.544Z,7.75
2022-09-28T08:39:40.571Z,8.15
2022-09-28T08:42:41.607Z,8.16
2022-09-28T08:45:46.074Z,7.89
2022-09-28T08:49:13.547Z,8.07
2022-09-28T08:52:13.436Z,8.18
2022-09-28T08:54:59.645Z,8.15
2022-09-28T08:57:41.933Z,8.21
2022-09-28T09:00:20.738Z,8.31
2022-09-28T09:02:50.705Z,8.36
2022-09-28T09:05:25.929Z,8.06
2022-09-28T09:08:20.665Z,8.53
2022-09-28T09:10:53.955Z,8.72
2022-09-28T09:14:03.982Z,8.94
2022-09-28T09:16:41.219Z,9.03
2022-09-28T09:19:18.384Z,8.58
2022-09-28T09:22:17.353Z,8.72
2022-09-28T09:24:53.181Z,8.98
2022-09-28T09:27:42.349Z,9.10
2022-09-28T09:30:16.676Z,9.11
2022-09-28T09:33:13.173Z,9.31
2022-09-28T09:36:13.226Z,9.21
2022-09-28T09:39:11.627Z,9.11
2022-09-28T09:42:13.505Z,9.13
2022-09-28T09:45:19.867Z,9.20
2022-09-28T09:48:14.121Z,9.33
2022-09-28T09:50:50.207Z,9.58
2022-09-28T09:53:25.392Z,9.59
2022-09-28T09:55:59.443Z,9.95
2022-09-28T09:59:07.256Z,10.83
2022-09-28T10:01:48.116Z,10.99
2022-09-28T10:04:25.106Z,9.58
2022-09-28T10:07:02.638Z,9.57
2022-09-28T10:09:37.845Z,10.17
2022-09-28T10:12:24.013Z,10.07
2022-09-28T10:14:56.228Z,9.87
2022-09-28T10:17:29.076Z,9.48
2022-09-28T10:20:18.945Z,9.51
2022-09-28T10:23:04.319Z,9.92
2022-09-28T10:25:38.429Z,9.63
2022-09-28T10:28:08.589Z,10.31
2022-09-28T10:30:42.119Z,10.43
2022-09-28T10:33:30.043Z,10.97
2022-09-28T10:36:00.632Z,11.30
2022-09-28T10:38:34.396Z,11.67
2022-09-28T10:41:16.632Z,12.09
2022-09-28T10:44:09.334Z,10.68
2022-09-28T10:47:18.265Z,11.39
2022-09-28T10:49:50.899Z,11.11
2022-09-28T10:52:38.596Z,10.82
2022-09-28T10:55:33.337Z,11.75
2022-09-28T10:58:18.468Z,13.11
2022-09-28T11:00:50.295Z,12.21
2022-09-28T11:03:25.964Z,11.55
2022-09-28T11:05:58.778Z,12.96
2022-09-28T11:08:31.423Z,11.92
2022-09-28T11:11:12.403Z,11.68
2022-09-28T11:13:45.336Z,11.58
2022-09-28T11:16:29.778Z,11.52
2022-09-28T11:19:06.138Z,12.14
2022-09-28T11:21:43.979Z,11.50
2022-09-28T11:24:22.064Z,10.97
2022-09-28T11:26:56.338Z,10.99
2022-09-28T11:29:35.733Z,10.94
2022-09-28T11:32:32.985Z,11.07
2022-09-28T11:35:26.905Z,11.51
2022-09-28T11:38:14.405Z,11.12
2022-09-28T11:41:46.108Z,11.40
2022-09-28T11:44:38.674Z,11.21
2022-09-28T11:47:41.748Z,12.14
2022-09-28T11:50:29.326Z,13.46
2022-09-28T11:53:11.702Z,13.20
2022-09-28T11:55:46.495Z,13.21
2022-09-28T11:58:27.257Z,13.72
2022-09-28T12:01:03.703Z,14.12
2022-09-28T12:03:51.429Z,14.65
2022-09-28T12:06:52.539Z,13.86
2022-09-28T12:09:44.604Z,13.14
2022-09-28T12:12:26.272Z,15.04
2022-09-28T12:15:06.254Z,14.11
2022-09-28T12:17:41.915Z,15.28
2022-09-28T12:20:19.492Z,14.02
2022-09-28T12:23:01.480Z,14.28
2022-09-28T12:25:40.793Z,13.02
2022-09-28T12:28:19.370Z,13.71
2022-09-28T12:30:50.370Z,13.94
2022-09-28T12:33:19.448Z,14.76
2022-09-28T12:36:06.361Z,15.37
2022-09-28T12:39:17.683Z,14.58
2022-09-28T12:41:59.958Z,13.43
2022-09-28T12:44:48.150Z,14.86
2022-09-28T12:47:36.184Z,14.29
2022-09-28T12:50:38.055Z,14.06
2022-09-28T12:53:31.770Z,14.87
2022-09-28T12:56:06.298Z,13.71
2022-09-28T12:59:00.027Z,13.26
2022-09-28T13:01:47.329Z,13.36
2022-09-28T13:05:01.513Z,14.18
2022-09-28T13:07:40.157Z,13.79
2022-09-28T13:10:19.553Z,13.91
2022-09-28T13:13:09.678Z,13.95
2022-09-28T13:15:43.951Z,13.91
2022-09-28T13:18:21.842Z,12.69
2022-09-28T13:21:05.768Z,12.92
2022-09-28T13:23:40.305Z,13.07
2022-09-28T13:26:18.100Z,12.73
2022-09-28T13:28:50.209Z,12.98
2022-09-28T13:31:22.323Z,13.33
2022-09-28T13:33:53.735Z,13.15
2022-09-28T13:36:47.134Z,12.66
2022-09-28T13:39:48.762Z,12.54
2022-09-28T13:42:57.212Z,12.34
2022-09-28T13:45:53.628Z,12.27
2022-09-28T13:48:25.490Z,12.23
2022-09-28T13:51:27.423Z,12.01
2022-09-28T13:54:25.706Z,11.60
2022-09-28T13:57:03.965Z,11.74
2022-09-28T13:59:43.433Z,11.65
2022-09-28T14:02:29.567Z,11.69
2022-09-28T14:05:00.663Z,11.85
2022-09-28T14:07:58.580Z,12.15
2022-09-28T14:10:51.706Z,12.35
2022-09-28T14:13:58.109Z,12.93
2022-09-28T14:16:31.126Z,14.60
2022-09-28T14:19:07.149Z,15.08
2022-09-28T14:22:10.473Z,13.30
2022-09-28T14:25:12.210Z,12.69
2022-09-28T14:28:02.256Z,12.28
2022-09-28T14:30:48.304Z,12.46
2022-09-28T14:33:25.463Z,12.42
2022-09-28T14:35:58.312Z,12.17
2022-09-28T14:38:49.324Z,11.69
2022-09-28T14:41:33.758Z,11.17
2022-09-28T14:44:13.472Z,11.34
2022-09-28T14:46:44.708Z,11.42
2022-09-28T14:49:47.491Z,12.79
2022-09-28T14:52:36.080Z,12.74
2022-09-28T14:55:12.152Z,12.92
2022-09-28T14:57:43.511Z,12.98
2022-09-28T15:00:21.493Z,13.48
2022-09-28T15:02:52.643Z,13.65
2022-09-28T15:05:25.172Z,13.57
2022-09-28T15:07:56.405Z,13.42
2022-09-28T15:10:32.418Z,13.68
2022-09-28T15:13:02.843Z,13.93
2022-09-28T15:15:35.555Z,13.39
2022-09-28T15:18:21.580Z,13.49
2022-09-28T15:20:51.187Z,12.95
2022-09-28T15:23:34.994Z,12.18
2022-09-28T15:26:07.283Z,11.84
2022-09-28T15:28:39.242Z,11.91
2022-09-28T15:31:08.293Z,12.07
2022-09-28T15:33:55.102Z,12.08
2022-09-28T15:36:27.845Z,12.28
2022-09-28T15:39:01.783Z,12.75
2022-09-28T15:41:31.177Z,13.13
2022-09-28T15:44:30.272Z,12.91
2022-09-28T15:47:14.749Z,12.86
2022-09-28T15:49:47.925Z,11.82
2022-09-28T15:52:36.090Z,11.61
2022-09-28T15:55:19.689Z,11.39
2022-09-28T15:57:48.978Z,11.46
2022-09-28T16:00:27.320Z,11.26
2022-09-28T16:03:02.013Z,11.18
2022-09-28T16:05:45.290Z,11.07
2022-09-28T16:08:21.266Z,11.04
2022-09-28T16:10:58.842Z,10.97
2022-09-28T16:13:28.284Z,10.84
2022-09-28T16:16:01.425Z,10.74
2022-09-28T16:18:33.740Z,10.63
2022-09-28T16:21:32.012Z,10.59
2022-09-28T16:24:01.349Z,10.63
2022-09-28T16:26:35.382Z,10.57
2022-09-28T16:29:10.426Z,10.46
2022-09-28T16:31:43.144Z,10.46
2022-09-28T16:34:20.683Z,10.30
2022-09-28T16:36:51.336Z,10.20
2022-09-28T16:39:21.759Z,10.11
2022-09-28T16:41:55.597Z,10.01
2022-09-28T16:44:27.209Z,9.91
2022-09-28T16:47:00.132Z,9.77
2022-09-28T16:49:32.092Z,9.64
2022-09-28T16:52:01.231Z,9.51
2022-09-28T16:54:48.634Z,9.43
2022-09-28T16:57:18.970Z,9.34
2022-09-28T16:59:47.876Z,9.28
2022-09-28T17:02:42.353Z,9.21
2022-09-28T17:05:08.751Z,9.05
2022-09-28T17:07:37.780Z,9.06
2022-09-28T17:10:18.346Z,8.94
2022-09-28T17:12:48.669Z,8.80
2022-09-28T17:15:19.422Z,8.75
2022-09-28T17:17:48.805Z,8.69
2022-09-28T17:20:22.406Z,8.66
2022-09-28T17:22:51.876Z,8.62
2022-09-28T17:25:21.813Z,8.53
2022-09-28T17:27:52.811Z,8.47
2022-09-28T17:30:23.743Z,8.42
2022-09-28T17:32:54.592Z,8.38
2022-09-28T17:35:25.133Z,8.29
2022-09-28T17:37:54.524Z,8.20
2022-09-28T17:40:25.520Z,8.13
2022-09-28T17:42:56.410Z,8.10
2022-09-28T17:45:26.906Z,8.04
2022-09-28T17:47:56.428Z,8.01
2022-09-28T17:50:27.772Z,7.93
2022-09-28T17:52:59.725Z,7.86
2022-09-28T17:55:31.507Z,7.83
2022-09-28T17:58:04.309Z,7.76
2022-09-28T18:00:35.140Z,7.67
2022-09-28T18:03:04.592Z,7.63
2022-09-28T18:05:33.937Z,7.57
2022-09-28T18:08:04.526Z,7.57
2022-09-28T18:10:34.292Z,7.62
2022-09-28T18:13:04.937Z,7.53
2022-09-28T18:15:34.259Z,7.47
2022-09-28T18:18:03.614Z,7.46
2022-09-28T18:20:35.486Z,7.47
2022-09-28T18:23:04.618Z,7.38
2022-09-28T18:25:33.709Z,7.33
2022-09-28T18:28:04.229Z,7.24
2022-09-28T18:30:33.627Z,7.11
2022-09-28T18:33:02.816Z,7.02
2022-09-28T18:35:32.450Z,6.98
2022-09-28T18:38:01.713Z,6.95
2022-09-28T18:40:32.050Z,6.90
2022-09-28T18:43:01.253Z,6.93
2022-09-28T18:45:31.937Z,6.91
2022-09-28T18:48:01.288Z,6.91
2022-09-28T18:50:30.537Z,6.96
2022-09-28T18:53:11.511Z,6.89
2022-09-28T18:55:42.158Z,6.88
2022-09-28T18:58:12.510Z,6.79
2022-09-28T19:00:43.545Z,6.80
2022-09-28T19:03:14.378Z,6.83
2022-09-28T19:05:45.508Z,6.74
2022-09-28T19:08:17.111Z,6.67
2022-09-28T19:10:49.344Z,6.64
2022-09-28T19:13:18.517Z,6.72
2022-09-28T19:15:48.862Z,6.63
2022-09-28T19:18:18.576Z,6.51
2022-09-28T19:20:47.523Z,6.56
2022-09-28T19:23:16.718Z,6.55
2022-09-28T19:25:45.757Z,6.36
2022-09-28T19:28:14.779Z,6.32
2022-09-28T19:30:55.946Z,6.31
2022-09-28T19:33:25.654Z,6.39
2022-09-28T19:35:59.444Z,6.50
2022-09-28T19:38:30.238Z,6.48
2022-09-28T19:40:59.605Z,6.60
2022-09-28T19:43:30.173Z,6.79
2022-09-28T19:46:06.085Z,6.85
2022-09-28T19:48:36.342Z,6.80
2022-09-28T19:51:08.127Z,6.79
2022-09-28T19:53:37.867Z,6.76
2022-09-28T19:56:10.301Z,6.79
2022-09-28T19:58:39.366Z,6.63
2022-09-28T20:01:10.086Z,6.60
2022-09-28T20:03:39.615Z,6.64
2022-09-28T20:06:08.922Z,6.56
2022-09-28T20:08:40.296Z,6.57
2022-09-28T20:11:11.609Z,6.57
2022-09-28T20:13:40.587Z,6.63
2022-09-28T20:16:12.962Z,6.68
2022-09-28T20:18:49.533Z,6.71
2022-09-28T20:21:24.937Z,6.78
2022-09-28T20:23:56.216Z,6.80
2022-09-28T20:26:26.449Z,6.76
2022-09-28T20:28:56.443Z,6.70
2022-09-28T20:31:27.460Z,6.79
2022-09-28T20:33:56.706Z,6.78
2022-09-28T20:36:26.619Z,6.80
2022-09-28T20:38:58.300Z,6.71
2022-09-28T20:41:27.413Z,6.73
2022-09-28T20:44:04.119Z,6.77
2022-09-28T20:46:36.344Z,6.82
2022-09-28T20:49:07.046Z,6.84
2022-09-28T20:51:36.004Z,6.91
2022-09-28T20:54:05.169Z,6.94
2022-09-28T20:56:38.067Z,6.93
2022-09-28T20:59:09.320Z,7.02
2022-09-28T21:01:39.959Z,7.07
2022-09-28T21:04:10.483Z,7.07
2022-09-28T21:06:41.537Z,7.10
2022-09-28T21:09:12.257Z,7.08
2022-09-28T21:11:41.462Z,7.10
2022-09-28T21:14:10.868Z,7.23
2022-09-28T21:16:41.334Z,7.16
2022-09-28T21:19:10.293Z,7.16
2022-09-28T21:21:39.219Z,7.21
2022-09-28T21:24:08.843Z,7.17
2022-09-28T21:26:38.981Z,7.20
2022-09-28T21:29:11.569Z,7.22
2022-09-28T21:31:45.565Z,7.22
2022-09-28T21:34:19.049Z,7.23
2022-09-28T21:36:51.230Z,7.22
2022-09-28T21:39:21.036Z,7.15
2022-09-28T21:41:50.234Z,7.14
2022-09-28T21:44:19.316Z,7.09
2022-09-28T21:46:49.714Z,7.04
2022-09-28T21:49:19.553Z,7.05
2022-09-28T21:51:48.516Z,7.06
2022-09-28T21:54:17.448Z,7.10
2022-09-28T21:56:46.403Z,7.13
2022-09-28T21:59:15.391Z,7.10
2022-09-28T22:01:44.476Z,7.13
2022-09-28T22:04:14.960Z,7.11
2022-09-28T22:06:44.029Z,7.11
2022-09-28T22:09:13.148Z,7.08
2022-09-28T22:11:42.306Z,7.05
2022-09-28T22:14:11.864Z,7.02
2022-09-28T22:16:41.126Z,6.99
2022-09-28T22:19:10.294Z,6.91
2022-09-28T22:21:40.572Z,6.87
2022-09-28T22:24:10.324Z,6.87
2022-09-28T22:26:40.175Z,6.79
2022-09-28T22:29:10.605Z,6.77
2022-09-28T22:31:41.772Z,6.71
2022-09-28T22:34:11.189Z,6.62
2022-09-28T22:36:41.590Z,6.54
2022-09-28T22:39:10.517Z,6.51
2022-09-28T22:41:39.674Z,6.41
2022-09-28T22:44:08.788Z,6.37
2022-09-28T22:46:38.358Z,6.36
2022-09-28T22:49:07.571Z,6.29
2022-09-28T22:51:36.509Z,6.23
2022-09-28T22:54:07.266Z,6.22
2022-09-28T22:56:36.277Z,6.12
2022-09-28T22:59:05.385Z,6.12
2022-09-28T23:01:35.125Z,6.12
2022-09-28T23:04:04.266Z,6.08
2022-09-28T23:06:33.503Z,6.09
2022-09-28T23:09:02.995Z,6.10
2022-09-28T23:11:33.328Z,6.06
2022-09-28T23:14:04.063Z,6.05
2022-09-28T23:16:33.080Z,6.01
2022-09-28T23:19:02.195Z,5.98
2022-09-28T23:21:31.257Z,5.93
2022-09-28T23:24:01.863Z,5.93
2022-09-28T23:26:34.311Z,5.91
2022-09-28T23:29:03.410Z,5.91
2022-09-28T23:31:33.775Z,5.85
2022-09-28T23:34:05.220Z,5.81
2022-09-28T23:36:34.962Z,5.76
2022-09-28T23:39:04.799Z,5.74
2022-09-28T23:41:35.271Z,5.67
2022-09-28T23:44:04.569Z,5.60
2022-09-28T23:46:33.491Z,5.62
2022-09-28T23:49:02.702Z,5.57
2022-09-28T23:51:31.854Z,5.55
2022-09-28T23:54:04.343Z,5.46
2022-09-28T23:56:34.794Z,5.40
2022-09-28T23:59:03.754Z,5.31
